sensor_id;sensor_type;location;lat;lon;timestamp;temperature;humidity
57843;DHT22;43673;51.058;3.734;2023-06-14T00:01:47;22.10;99.90
57843;DHT22;43673;51.058;3.734;2023-06-14T00:04:14;22.10;99.90
57843;DHT22;43673;51.058;3.734;2023-06-14T00:06:45;21.80;99.90
57843;DHT22;43673;51.058;3.734;2023-06-14T00:09:12;22.10;99.90
57843;DHT22;43673;51.058;3.734;2023-06-14T00:11:43;22.00;99.90
57843;DHT22;43673;51.058;3.734;2023-06-14T00:14:08;22.00;99.90
57843;DHT22;43673;51.058;3.734;2023-06-14T00:16:34;21.90;99.90
57843;DHT22;43673;51.058;3.734;2023-06-14T00:19:01;21.80;99.90
57843;DHT22;43673;51.058;3.734;2023-06-14T00:21:29;21.80;99.90
57843;DHT22;43673;51.058;3.734;2023-06-14T00:23:56;22.00;99.90
57843;DHT22;43673;51.058;3.734;2023-06-14T00:26:21;21.90;99.90
57843;DHT22;43673;51.058;3.734;2023-06-14T00:28:47;21.90;99.90
57843;DHT22;43673;51.058;3.734;2023-06-14T00:31:13;21.80;99.90
57843;DHT22;43673;51.058;3.734;2023-06-14T00:33:38;21.70;99.90
57843;DHT22;43673;51.058;3.734;2023-06-14T00:36:07;21.70;99.90
57843;DHT22;43673;51.058;3.734;2023-06-14T00:38:33;21.70;99.90
57843;DHT22;43673;51.058;3.734;2023-06-14T00:40:59;21.60;99.90
57843;DHT22;43673;51.058;3.734;2023-06-14T00:43:27;21.70;99.90
57843;DHT22;43673;51.058;3.734;2023-06-14T00:45:53;21.70;99.90
57843;DHT22;43673;51.058;3.734;2023-06-14T00:48:19;21.60;99.90
57843;DHT22;43673;51.058;3.734;2023-06-14T00:50:45;21.50;99.90
57843;DHT22;43673;51.058;3.734;2023-06-14T00:53:14;21.40;99.90
57843;DHT22;43673;51.058;3.734;2023-06-14T00:55:41;21.40;99.90
57843;DHT22;43673;51.058;3.734;2023-06-14T00:58:07;21.40;99.90
57843;DHT22;43673;51.058;3.734;2023-06-14T01:00:33;21.40;99.90
57843;DHT22;43673;51.058;3.734;2023-06-14T01:02:58;21.30;99.90
57843;DHT22;43673;51.058;3.734;2023-06-14T01:05:24;21.30;99.90
57843;DHT22;43673;51.058;3.734;2023-06-14T01:08:11;21.30;99.90
57843;DHT22;43673;51.058;3.734;2023-06-14T01:11:02;21.20;99.90
57843;DHT22;43673;51.058;3.734;2023-06-14T01:13:42;21.20;99.90
57843;DHT22;43673;51.058;3.734;2023-06-14T01:16:08;21.00;99.90
57843;DHT22;43673;51.058;3.734;2023-06-14T01:18:35;21.10;99.90
57843;DHT22;43673;51.058;3.734;2023-06-14T01:21:01;21.10;99.90
57843;DHT22;43673;51.058;3.734;2023-06-14T01:23:31;21.10;99.90
57843;DHT22;43673;51.058;3.734;2023-06-14T01:26:01;21.10;99.90
57843;DHT22;43673;51.058;3.734;2023-06-14T01:28:29;21.10;99.90
57843;DHT22;43673;51.058;3.734;2023-06-14T01:31:01;21.10;99.90
57843;DHT22;43673;51.058;3.734;2023-06-14T01:33:31;21.00;99.90
57843;DHT22;43673;51.058;3.734;2023-06-14T01:35:58;20.90;99.90
57843;DHT22;43673;51.058;3.734;2023-06-14T01:38:25;20.90;99.90
57843;DHT22;43673;51.058;3.734;2023-06-14T01:40:54;20.90;99.90
57843;DHT22;43673;51.058;3.734;2023-06-14T01:43:20;20.90;99.90
57843;DHT22;43673;51.058;3.734;2023-06-14T01:45:48;20.90;99.90
57843;DHT22;43673;51.058;3.734;2023-06-14T01:48:14;20.90;99.90
57843;DHT22;43673;51.058;3.734;2023-06-14T01:50:40;20.90;99.90
57843;DHT22;43673;51.058;3.734;2023-06-14T01:53:10;20.90;99.90
57843;DHT22;43673;51.058;3.734;2023-06-14T01:55:35;20.80;99.90
57843;DHT22;43673;51.058;3.734;2023-06-14T01:58:03;20.80;99.90
57843;DHT22;43673;51.058;3.734;2023-06-14T02:00:29;20.80;99.90
57843;DHT22;43673;51.058;3.734;2023-06-14T02:02:54;20.70;99.90
57843;DHT22;43673;51.058;3.734;2023-06-14T02:05:21;20.60;99.90
57843;DHT22;43673;51.058;3.734;2023-06-14T02:07:46;20.50;99.90
57843;DHT22;43673;51.058;3.734;2023-06-14T02:10:12;20.50;99.90
57843;DHT22;43673;51.058;3.734;2023-06-14T02:12:38;20.40;99.90
57843;DHT22;43673;51.058;3.734;2023-06-14T02:15:04;20.50;99.90
57843;DHT22;43673;51.058;3.734;2023-06-14T02:17:31;20.40;99.90
57843;DHT22;43673;51.058;3.734;2023-06-14T02:19:57;20.40;99.90
57843;DHT22;43673;51.058;3.734;2023-06-14T02:22:22;20.40;99.90
57843;DHT22;43673;51.058;3.734;2023-06-14T02:24:48;20.30;99.90
57843;DHT22;43673;51.058;3.734;2023-06-14T02:27:14;20.30;99.90
57843;DHT22;43673;51.058;3.734;2023-06-14T02:29:40;20.30;99.90
57843;DHT22;43673;51.058;3.734;2023-06-14T02:32:06;20.20;99.90
57843;DHT22;43673;51.058;3.734;2023-06-14T02:34:36;20.20;99.90
57843;DHT22;43673;51.058;3.734;2023-06-14T02:37:02;20.30;99.90
57843;DHT22;43673;51.058;3.734;2023-06-14T02:39:29;20.20;99.90
57843;DHT22;43673;51.058;3.734;2023-06-14T02:41:54;20.30;99.90
57843;DHT22;43673;51.058;3.734;2023-06-14T02:44:24;20.20;99.90
57843;DHT22;43673;51.058;3.734;2023-06-14T02:46:51;20.10;99.90
57843;DHT22;43673;51.058;3.734;2023-06-14T02:49:16;20.10;99.90
57843;DHT22;43673;51.058;3.734;2023-06-14T02:51:42;20.00;99.90
57843;DHT22;43673;51.058;3.734;2023-06-14T02:54:07;20.00;99.90
57843;DHT22;43673;51.058;3.734;2023-06-14T02:56:33;20.00;99.90
57843;DHT22;43673;51.058;3.734;2023-06-14T02:58:59;19.90;99.90
57843;DHT22;43673;51.058;3.734;2023-06-14T03:01:26;19.80;99.90
57843;DHT22;43673;51.058;3.734;2023-06-14T03:04:01;19.90;99.90
57843;DHT22;43673;51.058;3.734;2023-06-14T03:06:28;20.00;99.90
57843;DHT22;43673;51.058;3.734;2023-06-14T03:09:02;19.90;99.90
57843;DHT22;43673;51.058;3.734;2023-06-14T03:11:30;19.80;99.90
57843;DHT22;43673;51.058;3.734;2023-06-14T03:13:56;19.70;99.90
57843;DHT22;43673;51.058;3.734;2023-06-14T03:16:22;19.80;99.90
57843;DHT22;43673;51.058;3.734;2023-06-14T03:18:51;19.80;99.90
57843;DHT22;43673;51.058;3.734;2023-06-14T03:21:17;19.70;99.90
57843;DHT22;43673;51.058;3.734;2023-06-14T03:23:43;19.80;99.90
57843;DHT22;43673;51.058;3.734;2023-06-14T03:26:09;19.80;99.90
57843;DHT22;43673;51.058;3.734;2023-06-14T03:28:38;19.90;99.70
57843;DHT22;43673;51.058;3.734;2023-06-14T03:31:04;19.80;99.90
57843;DHT22;43673;51.058;3.734;2023-06-14T03:33:29;19.80;99.80
57843;DHT22;43673;51.058;3.734;2023-06-14T03:35:55;19.70;99.60
57843;DHT22;43673;51.058;3.734;2023-06-14T03:38:21;19.70;99.50
57843;DHT22;43673;51.058;3.734;2023-06-14T03:40:47;19.70;99.50
57843;DHT22;43673;51.058;3.734;2023-06-14T03:43:13;19.70;99.40
57843;DHT22;43673;51.058;3.734;2023-06-14T03:45:39;19.70;98.70
57843;DHT22;43673;51.058;3.734;2023-06-14T03:48:05;19.70;98.70
57843;DHT22;43673;51.058;3.734;2023-06-14T03:50:32;19.70;98.30
57843;DHT22;43673;51.058;3.734;2023-06-14T03:52:58;19.70;98.10
57843;DHT22;43673;51.058;3.734;2023-06-14T03:55:24;19.60;98.40
57843;DHT22;43673;51.058;3.734;2023-06-14T03:57:51;19.60;98.00
57843;DHT22;43673;51.058;3.734;2023-06-14T04:00:17;19.50;98.10
57843;DHT22;43673;51.058;3.734;2023-06-14T04:02:43;19.50;98.10
57843;DHT22;43673;51.058;3.734;2023-06-14T04:05:09;19.60;97.90
57843;DHT22;43673;51.058;3.734;2023-06-14T04:07:35;19.60;97.80
57843;DHT22;43673;51.058;3.734;2023-06-14T04:10:13;19.60;97.40
57843;DHT22;43673;51.058;3.734;2023-06-14T04:12:39;19.50;97.00
57843;DHT22;43673;51.058;3.734;2023-06-14T04:15:06;19.50;96.70
57843;DHT22;43673;51.058;3.734;2023-06-14T04:17:32;19.60;96.40
57843;DHT22;43673;51.058;3.734;2023-06-14T04:20:02;19.70;96.20
57843;DHT22;43673;51.058;3.734;2023-06-14T04:22:29;19.70;96.00
57843;DHT22;43673;51.058;3.734;2023-06-14T04:24:55;19.70;95.60
57843;DHT22;43673;51.058;3.734;2023-06-14T04:27:26;19.80;95.30
57843;DHT22;43673;51.058;3.734;2023-06-14T04:29:52;19.80;95.30
57843;DHT22;43673;51.058;3.734;2023-06-14T04:32:28;20.00;94.90
57843;DHT22;43673;51.058;3.734;2023-06-14T04:34:59;20.10;94.40
57843;DHT22;43673;51.058;3.734;2023-06-14T04:37:28;20.20;94.10
57843;DHT22;43673;51.058;3.734;2023-06-14T04:39:57;20.50;93.50
57843;DHT22;43673;51.058;3.734;2023-06-14T04:42:24;20.70;92.50
57843;DHT22;43673;51.058;3.734;2023-06-14T04:44:56;21.10;91.70
57843;DHT22;43673;51.058;3.734;2023-06-14T04:47:22;22.00;90.30
57843;DHT22;43673;51.058;3.734;2023-06-14T04:49:50;22.70;87.30
57843;DHT22;43673;51.058;3.734;2023-06-14T04:52:19;23.30;83.80
57843;DHT22;43673;51.058;3.734;2023-06-14T04:54:46;23.60;80.70
57843;DHT22;43673;51.058;3.734;2023-06-14T04:57:12;23.30;80.40
57843;DHT22;43673;51.058;3.734;2023-06-14T04:59:43;23.00;80.60
57843;DHT22;43673;51.058;3.734;2023-06-14T05:02:10;23.40;80.10
57843;DHT22;43673;51.058;3.734;2023-06-14T05:04:37;24.00;78.10
57843;DHT22;43673;51.058;3.734;2023-06-14T05:07:09;24.60;76.10
57843;DHT22;43673;51.058;3.734;2023-06-14T05:09:35;25.20;74.00
57843;DHT22;43673;51.058;3.734;2023-06-14T05:12:01;25.70;71.80
57843;DHT22;43673;51.058;3.734;2023-06-14T05:14:27;26.20;70.10
57843;DHT22;43673;51.058;3.734;2023-06-14T05:16:53;26.30;68.30
57843;DHT22;43673;51.058;3.734;2023-06-14T05:19:19;26.70;67.80
57843;DHT22;43673;51.058;3.734;2023-06-14T05:21:47;27.40;65.90
57843;DHT22;43673;51.058;3.734;2023-06-14T05:24:16;27.70;64.40
57843;DHT22;43673;51.058;3.734;2023-06-14T05:26:45;27.90;62.90
57843;DHT22;43673;51.058;3.734;2023-06-14T05:29:11;28.20;62.30
57843;DHT22;43673;51.058;3.734;2023-06-14T05:31:37;28.10;61.10
57843;DHT22;43673;51.058;3.734;2023-06-14T05:34:03;28.10;61.30
57843;DHT22;43673;51.058;3.734;2023-06-14T05:36:29;28.40;60.70
57843;DHT22;43673;51.058;3.734;2023-06-14T05:38:55;28.30;60.40
57843;DHT22;43673;51.058;3.734;2023-06-14T05:41:27;28.00;60.20
57843;DHT22;43673;51.058;3.734;2023-06-14T05:43:55;27.40;61.00
57843;DHT22;43673;51.058;3.734;2023-06-14T05:46:21;27.20;61.70
57843;DHT22;43673;51.058;3.734;2023-06-14T05:48:54;28.00;61.30
57843;DHT22;43673;51.058;3.734;2023-06-14T05:51:29;28.10;59.90
57843;DHT22;43673;51.058;3.734;2023-06-14T05:53:55;27.60;60.40
57843;DHT22;43673;51.058;3.734;2023-06-14T05:56:21;27.20;61.70
57843;DHT22;43673;51.058;3.734;2023-06-14T05:58:47;26.90;61.70
57843;DHT22;43673;51.058;3.734;2023-06-14T06:01:13;26.90;62.50
57843;DHT22;43673;51.058;3.734;2023-06-14T06:03:39;26.80;62.80
57843;DHT22;43673;51.058;3.734;2023-06-14T06:06:05;26.80;62.40
57843;DHT22;43673;51.058;3.734;2023-06-14T06:08:31;27.60;61.80
57843;DHT22;43673;51.058;3.734;2023-06-14T06:10:57;28.00;60.50
57843;DHT22;43673;51.058;3.734;2023-06-14T06:13:27;27.80;60.90
57843;DHT22;43673;51.058;3.734;2023-06-14T06:15:53;27.60;61.50
57843;DHT22;43673;51.058;3.734;2023-06-14T06:18:18;28.50;60.30
57843;DHT22;43673;51.058;3.734;2023-06-14T06:20:44;29.90;58.80
57843;DHT22;43673;51.058;3.734;2023-06-14T06:23:12;31.00;56.70
57843;DHT22;43673;51.058;3.734;2023-06-14T06:25:38;31.50;55.60
57843;DHT22;43673;51.058;3.734;2023-06-14T06:28:03;31.50;54.00
57843;DHT22;43673;51.058;3.734;2023-06-14T06:30:29;31.00;54.80
57843;DHT22;43673;51.058;3.734;2023-06-14T06:32:55;31.00;55.20
57843;DHT22;43673;51.058;3.734;2023-06-14T06:35:23;31.50;54.80
57843;DHT22;43673;51.058;3.734;2023-06-14T06:37:49;32.50;54.10
57843;DHT22;43673;51.058;3.734;2023-06-14T06:40:14;32.20;53.10
57843;DHT22;43673;51.058;3.734;2023-06-14T06:42:40;32.90;52.90
57843;DHT22;43673;51.058;3.734;2023-06-14T06:45:06;33.50;51.90
57843;DHT22;43673;51.058;3.734;2023-06-14T06:47:32;32.90;51.30
57843;DHT22;43673;51.058;3.734;2023-06-14T06:49:58;32.00;52.80
57843;DHT22;43673;51.058;3.734;2023-06-14T06:52:23;32.10;53.10
57843;DHT22;43673;51.058;3.734;2023-06-14T06:54:49;32.40;52.60
57843;DHT22;43673;51.058;3.734;2023-06-14T06:57:20;32.20;52.20
57843;DHT22;43673;51.058;3.734;2023-06-14T06:59:46;32.00;52.50
57843;DHT22;43673;51.058;3.734;2023-06-14T07:02:11;31.70;52.80
57843;DHT22;43673;51.058;3.734;2023-06-14T07:04:37;31.10;53.50
57843;DHT22;43673;51.058;3.734;2023-06-14T07:07:03;31.50;53.60
57843;DHT22;43673;51.058;3.734;2023-06-14T07:09:28;32.10;52.80
57843;DHT22;43673;51.058;3.734;2023-06-14T07:11:54;32.70;52.00
57843;DHT22;43673;51.058;3.734;2023-06-14T07:14:20;33.00;51.40
57843;DHT22;43673;51.058;3.734;2023-06-14T07:16:48;32.60;51.50
57843;DHT22;43673;51.058;3.734;2023-06-14T07:19:14;32.10;51.80
57843;DHT22;43673;51.058;3.734;2023-06-14T07:21:43;31.70;52.60
57843;DHT22;43673;51.058;3.734;2023-06-14T07:24:09;31.30;52.60
57843;DHT22;43673;51.058;3.734;2023-06-14T07:26:35;31.10;53.20
57843;DHT22;43673;51.058;3.734;2023-06-14T07:29:01;31.80;52.80
57843;DHT22;43673;51.058;3.734;2023-06-14T07:31:27;31.20;52.60
57843;DHT22;43673;51.058;3.734;2023-06-14T07:33:53;30.80;53.80
57843;DHT22;43673;51.058;3.734;2023-06-14T07:36:21;31.50;54.50
57843;DHT22;43673;51.058;3.734;2023-06-14T07:38:54;33.10;52.50
57843;DHT22;43673;51.058;3.734;2023-06-14T07:41:20;34.70;50.40
57843;DHT22;43673;51.058;3.734;2023-06-14T07:43:46;35.30;49.10
57843;DHT22;43673;51.058;3.734;2023-06-14T07:46:11;35.10;48.40
57843;DHT22;43673;51.058;3.734;2023-06-14T07:48:37;34.70;48.60
57843;DHT22;43673;51.058;3.734;2023-06-14T07:51:03;34.80;47.70
57843;DHT22;43673;51.058;3.734;2023-06-14T07:53:32;34.80;47.20
57843;DHT22;43673;51.058;3.734;2023-06-14T07:56:00;34.80;47.20
57843;DHT22;43673;51.058;3.734;2023-06-14T07:58:26;34.90;47.10
57843;DHT22;43673;51.058;3.734;2023-06-14T08:00:52;35.40;46.90
57843;DHT22;43673;51.058;3.734;2023-06-14T08:03:18;35.70;46.50
57843;DHT22;43673;51.058;3.734;2023-06-14T08:05:45;35.80;46.60
57843;DHT22;43673;51.058;3.734;2023-06-14T08:08:10;35.00;48.00
57843;DHT22;43673;51.058;3.734;2023-06-14T08:10:36;35.50;47.80
57843;DHT22;43673;51.058;3.734;2023-06-14T08:13:02;35.70;46.80
57843;DHT22;43673;51.058;3.734;2023-06-14T08:15:27;35.40;46.50
57843;DHT22;43673;51.058;3.734;2023-06-14T08:17:53;35.30;47.00
57843;DHT22;43673;51.058;3.734;2023-06-14T08:20:19;35.70;47.40
57843;DHT22;43673;51.058;3.734;2023-06-14T08:22:45;36.00;47.10
57843;DHT22;43673;51.058;3.734;2023-06-14T08:25:13;36.30;46.60
57843;DHT22;43673;51.058;3.734;2023-06-14T08:27:39;36.30;46.90
57843;DHT22;43673;51.058;3.734;2023-06-14T08:30:05;36.80;46.00
57843;DHT22;43673;51.058;3.734;2023-06-14T08:32:33;36.80;45.90
57843;DHT22;43673;51.058;3.734;2023-06-14T08:34:58;37.30;45.70
57843;DHT22;43673;51.058;3.734;2023-06-14T08:37:24;37.00;45.30
57843;DHT22;43673;51.058;3.734;2023-06-14T08:40:02;37.40;44.80
57843;DHT22;43673;51.058;3.734;2023-06-14T08:42:31;37.50;45.30
57843;DHT22;43673;51.058;3.734;2023-06-14T08:44:57;37.50;45.60
57843;DHT22;43673;51.058;3.734;2023-06-14T08:47:24;37.60;45.40
57843;DHT22;43673;51.058;3.734;2023-06-14T08:49:52;37.10;45.50
57843;DHT22;43673;51.058;3.734;2023-06-14T08:52:21;38.10;45.10
57843;DHT22;43673;51.058;3.734;2023-06-14T08:54:48;38.80;44.00
57843;DHT22;43673;51.058;3.734;2023-06-14T08:57:14;38.50;43.60
57843;DHT22;43673;51.058;3.734;2023-06-14T08:59:46;38.70;42.20
57843;DHT22;43673;51.058;3.734;2023-06-14T09:02:15;38.40;42.00
57843;DHT22;43673;51.058;3.734;2023-06-14T09:04:43;38.00;41.90
57843;DHT22;43673;51.058;3.734;2023-06-14T09:07:10;37.10;42.40
57843;DHT22;43673;51.058;3.734;2023-06-14T09:09:39;37.00;42.10
57843;DHT22;43673;51.058;3.734;2023-06-14T09:12:10;37.10;42.70
57843;DHT22;43673;51.058;3.734;2023-06-14T09:14:37;36.10;43.10
57843;DHT22;43673;51.058;3.734;2023-06-14T09:17:05;34.90;44.70
57843;DHT22;43673;51.058;3.734;2023-06-14T09:19:31;34.90;45.30
57843;DHT22;43673;51.058;3.734;2023-06-14T09:21:58;35.30;43.50
57843;DHT22;43673;51.058;3.734;2023-06-14T09:24:24;36.10;43.40
57843;DHT22;43673;51.058;3.734;2023-06-14T09:26:53;36.40;43.30
57843;DHT22;43673;51.058;3.734;2023-06-14T09:29:19;36.30;42.60
57843;DHT22;43673;51.058;3.734;2023-06-14T09:31:48;35.60;42.50
57843;DHT22;43673;51.058;3.734;2023-06-14T09:34:16;34.50;44.40
57843;DHT22;43673;51.058;3.734;2023-06-14T09:36:42;34.10;45.50
57843;DHT22;43673;51.058;3.734;2023-06-14T09:39:08;34.10;45.10
57843;DHT22;43673;51.058;3.734;2023-06-14T09:41:38;34.20;44.70
57843;DHT22;43673;51.058;3.734;2023-06-14T09:44:07;34.60;44.50
57843;DHT22;43673;51.058;3.734;2023-06-14T09:46:34;34.90;43.20
57843;DHT22;43673;51.058;3.734;2023-06-14T09:49:01;35.40;42.80
57843;DHT22;43673;51.058;3.734;2023-06-14T09:51:28;35.60;42.10
57843;DHT22;43673;51.058;3.734;2023-06-14T09:53:59;35.30;42.20
57843;DHT22;43673;51.058;3.734;2023-06-14T09:56:29;34.70;42.20
57843;DHT22;43673;51.058;3.734;2023-06-14T09:58:57;34.00;43.80
57843;DHT22;43673;51.058;3.734;2023-06-14T10:01:24;33.90;44.00
57843;DHT22;43673;51.058;3.734;2023-06-14T10:03:55;33.90;43.20
57843;DHT22;43673;51.058;3.734;2023-06-14T10:06:25;33.90;42.10
57843;DHT22;43673;51.058;3.734;2023-06-14T10:08:56;33.80;43.00
57843;DHT22;43673;51.058;3.734;2023-06-14T10:11:23;33.80;42.90
57843;DHT22;43673;51.058;3.734;2023-06-14T10:13:49;33.40;43.00
57843;DHT22;43673;51.058;3.734;2023-06-14T10:16:31;32.80;43.60
57843;DHT22;43673;51.058;3.734;2023-06-14T10:19:17;32.30;43.70
57843;DHT22;43673;51.058;3.734;2023-06-14T10:22:06;31.90;43.40
57843;DHT22;43673;51.058;3.734;2023-06-14T10:24:42;32.40;42.50
57843;DHT22;43673;51.058;3.734;2023-06-14T10:27:08;32.50;43.70
57843;DHT22;43673;51.058;3.734;2023-06-14T10:32:18;33.20;44.50
57843;DHT22;43673;51.058;3.734;2023-06-14T10:34:44;33.00;45.00
57843;DHT22;43673;51.058;3.734;2023-06-14T10:37:12;32.40;44.80
57843;DHT22;43673;51.058;3.734;2023-06-14T10:42:08;32.20;44.40
57843;DHT22;43673;51.058;3.734;2023-06-14T10:44:50;31.40;45.10
57843;DHT22;43673;51.058;3.734;2023-06-14T10:47:36;31.50;45.80
57843;DHT22;43673;51.058;3.734;2023-06-14T10:50:06;31.30;44.10
57843;DHT22;43673;51.058;3.734;2023-06-14T10:52:38;31.10;44.40
57843;DHT22;43673;51.058;3.734;2023-06-14T10:55:06;31.50;43.30
57843;DHT22;43673;51.058;3.734;2023-06-14T10:57:42;32.10;43.20
57843;DHT22;43673;51.058;3.734;2023-06-14T11:00:08;32.70;43.80
57843;DHT22;43673;51.058;3.734;2023-06-14T11:05:51;33.10;44.20
57843;DHT22;43673;51.058;3.734;2023-06-14T11:11:00;33.40;44.20
57843;DHT22;43673;51.058;3.734;2023-06-14T11:13:26;33.60;43.80
57843;DHT22;43673;51.058;3.734;2023-06-14T11:15:52;33.40;42.60
57843;DHT22;43673;51.058;3.734;2023-06-14T11:18:23;33.30;43.10
57843;DHT22;43673;51.058;3.734;2023-06-14T11:20:53;33.50;43.50
57843;DHT22;43673;51.058;3.734;2023-06-14T11:23:19;33.70;42.90
57843;DHT22;43673;51.058;3.734;2023-06-14T11:25:50;33.50;42.50
57843;DHT22;43673;51.058;3.734;2023-06-14T11:28:16;32.90;41.60
57843;DHT22;43673;51.058;3.734;2023-06-14T11:30:42;32.10;42.60
57843;DHT22;43673;51.058;3.734;2023-06-14T11:33:10;31.80;43.10
57843;DHT22;43673;51.058;3.734;2023-06-14T11:35:37;31.30;44.50
57843;DHT22;43673;51.058;3.734;2023-06-14T11:38:02;30.90;44.60
57843;DHT22;43673;51.058;3.734;2023-06-14T11:40:29;30.50;44.30
57843;DHT22;43673;51.058;3.734;2023-06-14T11:42:59;30.10;45.20
57843;DHT22;43673;51.058;3.734;2023-06-14T11:45:25;29.70;45.40
57843;DHT22;43673;51.058;3.734;2023-06-14T11:47:53;29.50;45.40
57843;DHT22;43673;51.058;3.734;2023-06-14T11:50:19;29.50;46.20
57843;DHT22;43673;51.058;3.734;2023-06-14T11:52:53;29.40;46.20
57843;DHT22;43673;51.058;3.734;2023-06-14T11:55:19;29.50;46.80
57843;DHT22;43673;51.058;3.734;2023-06-14T11:57:46;29.40;46.70
57843;DHT22;43673;51.058;3.734;2023-06-14T12:00:12;29.40;47.00
57843;DHT22;43673;51.058;3.734;2023-06-14T12:02:38;29.00;47.10
57843;DHT22;43673;51.058;3.734;2023-06-14T12:05:08;28.90;47.10
57843;DHT22;43673;51.058;3.734;2023-06-14T12:07:36;28.60;46.50
57843;DHT22;43673;51.058;3.734;2023-06-14T12:12:35;28.30;46.90
57843;DHT22;43673;51.058;3.734;2023-06-14T12:15:03;28.20;48.20
57843;DHT22;43673;51.058;3.734;2023-06-14T12:17:32;28.50;48.00
57843;DHT22;43673;51.058;3.734;2023-06-14T12:19:59;28.40;47.70
57843;DHT22;43673;51.058;3.734;2023-06-14T12:22:31;28.40;47.90
57843;DHT22;43673;51.058;3.734;2023-06-14T12:24:57;28.40;48.20
57843;DHT22;43673;51.058;3.734;2023-06-14T12:27:23;28.40;47.90
57843;DHT22;43673;51.058;3.734;2023-06-14T12:29:59;28.30;48.60
57843;DHT22;43673;51.058;3.734;2023-06-14T12:32:25;28.60;48.20
57843;DHT22;43673;51.058;3.734;2023-06-14T12:34:51;28.80;48.00
57843;DHT22;43673;51.058;3.734;2023-06-14T12:37:17;28.80;47.30
57843;DHT22;43673;51.058;3.734;2023-06-14T12:39:42;28.90;47.20
57843;DHT22;43673;51.058;3.734;2023-06-14T12:42:08;29.00;47.40
57843;DHT22;43673;51.058;3.734;2023-06-14T12:44:34;29.20;47.40
57843;DHT22;43673;51.058;3.734;2023-06-14T12:47:06;29.30;47.50
57843;DHT22;43673;51.058;3.734;2023-06-14T12:49:31;29.30;47.90
57843;DHT22;43673;51.058;3.734;2023-06-14T12:51:57;29.30;48.40
57843;DHT22;43673;51.058;3.734;2023-06-14T12:54:23;29.30;48.00
57843;DHT22;43673;51.058;3.734;2023-06-14T12:56:51;29.20;47.40
57843;DHT22;43673;51.058;3.734;2023-06-14T12:59:17;28.90;47.90
57843;DHT22;43673;51.058;3.734;2023-06-14T13:01:43;28.80;48.10
57843;DHT22;43673;51.058;3.734;2023-06-14T13:04:10;28.90;48.50
57843;DHT22;43673;51.058;3.734;2023-06-14T13:06:36;28.90;48.20
57843;DHT22;43673;51.058;3.734;2023-06-14T13:09:02;28.70;48.10
57843;DHT22;43673;51.058;3.734;2023-06-14T13:11:29;28.70;47.80
57843;DHT22;43673;51.058;3.734;2023-06-14T13:13:55;29.00;48.10
57843;DHT22;43673;51.058;3.734;2023-06-14T13:16:21;29.10;47.70
57843;DHT22;43673;51.058;3.734;2023-06-14T13:18:47;29.40;47.80
57843;DHT22;43673;51.058;3.734;2023-06-14T13:21:12;29.40;46.80
57843;DHT22;43673;51.058;3.734;2023-06-14T13:23:38;29.20;46.90
57843;DHT22;43673;51.058;3.734;2023-06-14T13:26:04;29.30;46.80
57843;DHT22;43673;51.058;3.734;2023-06-14T13:28:29;29.30;46.60
57843;DHT22;43673;51.058;3.734;2023-06-14T13:30:56;29.40;46.80
57843;DHT22;43673;51.058;3.734;2023-06-14T13:33:22;29.40;46.70
57843;DHT22;43673;51.058;3.734;2023-06-14T13:35:49;29.40;46.90
57843;DHT22;43673;51.058;3.734;2023-06-14T13:38:18;29.40;46.30
57843;DHT22;43673;51.058;3.734;2023-06-14T13:40:43;29.20;46.30
57843;DHT22;43673;51.058;3.734;2023-06-14T13:43:09;29.10;46.80
57843;DHT22;43673;51.058;3.734;2023-06-14T13:45:35;29.10;47.10
57843;DHT22;43673;51.058;3.734;2023-06-14T13:48:01;29.10;46.90
57843;DHT22;43673;51.058;3.734;2023-06-14T13:50:26;29.10;46.90
57843;DHT22;43673;51.058;3.734;2023-06-14T13:52:53;29.20;46.40
57843;DHT22;43673;51.058;3.734;2023-06-14T13:55:18;29.20;46.50
57843;DHT22;43673;51.058;3.734;2023-06-14T13:57:44;29.20;45.80
57843;DHT22;43673;51.058;3.734;2023-06-14T14:00:11;29.10;46.40
57843;DHT22;43673;51.058;3.734;2023-06-14T14:02:37;29.10;46.50
57843;DHT22;43673;51.058;3.734;2023-06-14T14:05:03;29.10;47.00
57843;DHT22;43673;51.058;3.734;2023-06-14T14:07:29;29.10;47.00
57843;DHT22;43673;51.058;3.734;2023-06-14T14:09:55;29.00;47.40
57843;DHT22;43673;51.058;3.734;2023-06-14T14:12:23;28.90;47.80
57843;DHT22;43673;51.058;3.734;2023-06-14T14:14:49;29.10;47.10
57843;DHT22;43673;51.058;3.734;2023-06-14T14:17:15;28.80;47.60
57843;DHT22;43673;51.058;3.734;2023-06-14T14:19:41;28.70;47.70
57843;DHT22;43673;51.058;3.734;2023-06-14T14:22:07;28.80;47.40
57843;DHT22;43673;51.058;3.734;2023-06-14T14:24:32;28.90;47.50
57843;DHT22;43673;51.058;3.734;2023-06-14T14:26:58;28.80;48.00
57843;DHT22;43673;51.058;3.734;2023-06-14T14:29:28;28.90;47.80
57843;DHT22;43673;51.058;3.734;2023-06-14T14:32:00;29.00;48.20
57843;DHT22;43673;51.058;3.734;2023-06-14T14:34:26;28.90;48.00
57843;DHT22;43673;51.058;3.734;2023-06-14T14:36:52;28.80;48.50
57843;DHT22;43673;51.058;3.734;2023-06-14T14:39:18;28.90;47.70
57843;DHT22;43673;51.058;3.734;2023-06-14T14:41:46;28.80;47.50
57843;DHT22;43673;51.058;3.734;2023-06-14T14:44:12;28.90;47.60
57843;DHT22;43673;51.058;3.734;2023-06-14T14:46:38;28.80;46.90
57843;DHT22;43673;51.058;3.734;2023-06-14T14:49:04;28.80;47.40
57843;DHT22;43673;51.058;3.734;2023-06-14T14:51:30;28.80;47.30
57843;DHT22;43673;51.058;3.734;2023-06-14T14:53:55;28.70;47.30
57843;DHT22;43673;51.058;3.734;2023-06-14T14:56:21;28.90;47.30
57843;DHT22;43673;51.058;3.734;2023-06-14T14:58:47;28.90;46.90
57843;DHT22;43673;51.058;3.734;2023-06-14T15:01:14;28.90;46.70
57843;DHT22;43673;51.058;3.734;2023-06-14T15:03:40;28.90;46.80
57843;DHT22;43673;51.058;3.734;2023-06-14T15:06:05;28.80;46.60
57843;DHT22;43673;51.058;3.734;2023-06-14T15:08:31;28.80;46.00
57843;DHT22;43673;51.058;3.734;2023-06-14T15:10:57;28.80;45.70
57843;DHT22;43673;51.058;3.734;2023-06-14T15:13:22;28.70;45.70
57843;DHT22;43673;51.058;3.734;2023-06-14T15:15:48;28.60;45.70
57843;DHT22;43673;51.058;3.734;2023-06-14T15:18:14;28.60;45.30
57843;DHT22;43673;51.058;3.734;2023-06-14T15:20:40;28.70;45.90
57843;DHT22;43673;51.058;3.734;2023-06-14T15:23:07;28.90;45.40
57843;DHT22;43673;51.058;3.734;2023-06-14T15:25:32;28.90;45.40
57843;DHT22;43673;51.058;3.734;2023-06-14T15:27:58;28.90;45.40
57843;DHT22;43673;51.058;3.734;2023-06-14T15:30:24;28.90;45.40
57843;DHT22;43673;51.058;3.734;2023-06-14T15:32:53;28.90;44.90
57843;DHT22;43673;51.058;3.734;2023-06-14T15:35:19;28.70;45.20
57843;DHT22;43673;51.058;3.734;2023-06-14T15:37:48;28.60;45.20
57843;DHT22;43673;51.058;3.734;2023-06-14T15:40:14;28.70;46.00
57843;DHT22;43673;51.058;3.734;2023-06-14T15:42:43;28.60;46.10
57843;DHT22;43673;51.058;3.734;2023-06-14T15:45:09;28.60;46.50